createdAt,value
2022-09-10T00:01:18.346Z,1.20
2022-09-10T00:03:46.576Z,2.03
2022-09-10T00:06:16.362Z,1.37
2022-09-10T00:08:44.607Z,1.30
2022-09-10T00:11:13.169Z,1.67
2022-09-10T00:13:41.483Z,1.53
2022-09-10T00:16:10.739Z,2.03
2022-09-10T00:18:40.212Z,1.60
2022-09-10T00:21:10.246Z,1.57
2022-09-10T00:23:39.830Z,1.60
2022-09-10T00:26:11.946Z,1.70
2022-09-10T00:28:40.538Z,2.63
2022-09-10T00:31:08.762Z,1.93
2022-09-10T00:33:37.130Z,2.20
2022-09-10T00:36:06.175Z,1.97
2022-09-10T00:38:34.493Z,2.30
2022-09-10T00:41:08.133Z,2.37
2022-09-10T00:43:53.937Z,2.13
2022-09-10T00:46:28.168Z,2.80
2022-09-10T00:48:57.562Z,2.27
2022-09-10T00:51:27.450Z,2.63
2022-09-10T00:53:55.883Z,2.80
2022-09-10T00:56:25.796Z,2.40
2022-09-10T00:58:54.005Z,2.53
2022-09-10T01:01:22.219Z,2.23
2022-09-10T01:03:51.984Z,2.63
2022-09-10T01:06:20.816Z,2.40
2022-09-10T01:08:49.031Z,2.20
2022-09-10T01:11:29.361Z,2.30
2022-09-10T01:14:06.287Z,2.30
2022-09-10T01:16:38.738Z,3.70
2022-09-10T01:19:14.714Z,1.90
2022-09-10T01:21:48.548Z,2.67
2022-09-10T01:24:32.997Z,2.80
2022-09-10T01:27:27.962Z,2.33
2022-09-10T01:30:01.245Z,2.37
2022-09-10T01:32:31.529Z,2.03
2022-09-10T01:35:05.617Z,3.03
2022-09-10T01:37:35.075Z,2.70
2022-09-10T01:40:04.869Z,2.47
2022-09-10T01:42:33.391Z,2.47
2022-09-10T01:45:02.931Z,2.43
2022-09-10T01:47:40.041Z,2.37
2022-09-10T01:50:21.805Z,2.80
2022-09-10T01:52:56.223Z,2.53
2022-09-10T01:55:31.790Z,3.23
2022-09-10T01:58:01.759Z,3.30
2022-09-10T02:00:33.322Z,2.43
2022-09-10T02:03:04.046Z,3.53
2022-09-10T02:05:35.157Z,2.77
2022-09-10T02:08:05.145Z,3.60
2022-09-10T02:10:33.365Z,2.83
2022-09-10T02:13:01.721Z,3.30
2022-09-10T02:15:32.543Z,2.80
2022-09-10T02:18:01.814Z,3.33
2022-09-10T02:20:31.258Z,2.90
2022-09-10T02:23:00.175Z,2.90
2022-09-10T02:25:33.299Z,2.37
2022-09-10T02:28:01.475Z,3.23
2022-09-10T02:30:31.299Z,3.63
2022-09-10T02:32:59.594Z,2.97
2022-09-10T02:35:28.471Z,2.60
2022-09-10T02:37:56.763Z,3.60
2022-09-10T02:40:24.959Z,2.40
2022-09-10T02:42:53.110Z,4.23
2022-09-10T02:45:21.380Z,3.00
2022-09-10T02:47:50.993Z,3.57
2022-09-10T02:50:19.824Z,3.40
2022-09-10T02:52:48.901Z,3.10
2022-09-10T02:55:17.231Z,3.00
2022-09-10T02:57:45.638Z,3.83
2022-09-10T03:00:14.311Z,4.10
2022-09-10T03:02:42.714Z,4.70
2022-09-10T03:05:12.502Z,3.70
2022-09-10T03:07:40.711Z,3.87
2022-09-10T03:10:10.452Z,3.60
2022-09-10T03:12:39.113Z,4.20
2022-09-10T03:15:07.906Z,4.37
2022-09-10T03:17:36.133Z,3.33
2022-09-10T03:20:05.258Z,3.73
2022-09-10T03:22:34.818Z,3.33
2022-09-10T03:25:03.020Z,3.10
2022-09-10T03:27:31.238Z,3.77
2022-09-10T03:29:59.410Z,3.67
2022-09-10T03:32:27.717Z,3.90
2022-09-10T03:34:55.930Z,3.20
2022-09-10T03:37:24.615Z,3.77
2022-09-10T03:39:55.339Z,3.20
2022-09-10T03:42:23.548Z,4.10
2022-09-10T03:44:52.364Z,3.87
2022-09-10T03:47:20.560Z,3.30
2022-09-10T03:49:50.742Z,2.97
2022-09-10T03:52:18.982Z,4.80
2022-09-10T03:54:47.169Z,2.67
2022-09-10T03:57:16.752Z,3.40
2022-09-10T03:59:46.158Z,3.77
2022-09-10T04:02:14.597Z,3.53
2022-09-10T04:04:42.891Z,3.33
2022-09-10T04:07:11.774Z,3.60
2022-09-10T04:09:40.167Z,3.27
2022-09-10T04:12:08.902Z,3.60
2022-09-10T04:14:38.489Z,3.10
2022-09-10T04:17:06.685Z,3.37
2022-09-10T04:19:35.331Z,3.07
2022-09-10T04:22:03.660Z,3.60
2022-09-10T04:24:31.852Z,4.47
2022-09-10T04:27:01.517Z,3.60
2022-09-10T04:29:31.048Z,3.70
2022-09-10T04:32:00.814Z,3.60
2022-09-10T04:34:29.017Z,3.30
2022-09-10T04:36:57.223Z,3.50
2022-09-10T04:39:25.426Z,3.77
2022-09-10T04:41:53.599Z,3.40
2022-09-10T04:44:21.792Z,2.40
2022-09-10T04:46:49.968Z,3.17
2022-09-10T04:49:19.534Z,3.87
2022-09-10T04:51:47.806Z,3.63
2022-09-10T04:54:16.085Z,3.30
2022-09-10T04:56:45.406Z,4.17
2022-09-10T04:59:13.596Z,3.30
2022-09-10T05:01:42.144Z,3.77
2022-09-10T05:04:10.347Z,3.90
2022-09-10T05:06:39.883Z,3.50
2022-09-10T05:09:08.078Z,4.50
2022-09-10T05:11:36.690Z,3.70
2022-09-10T05:14:04.912Z,4.20
2022-09-10T05:16:33.557Z,3.03
2022-09-10T05:19:01.921Z,3.60
2022-09-10T05:21:31.134Z,3.30
2022-09-10T05:24:00.704Z,4.27
2022-09-10T05:26:29.929Z,4.00
2022-09-10T05:28:59.756Z,4.20
2022-09-10T05:31:28.634Z,4.30
2022-09-10T05:33:56.813Z,3.43
2022-09-10T05:36:25.094Z,3.17
2022-09-10T05:38:54.992Z,3.70
2022-09-10T05:41:25.185Z,3.70
2022-09-10T05:43:53.395Z,4.30
2022-09-10T05:46:22.258Z,3.30
2022-09-10T05:48:50.436Z,5.00
2022-09-10T05:51:18.670Z,4.87
2022-09-10T05:53:47.054Z,3.60
2022-09-10T05:56:15.259Z,4.20
2022-09-10T05:58:45.990Z,4.47
2022-09-10T06:01:14.180Z,4.33
2022-09-10T06:03:42.494Z,4.93
2022-09-10T06:06:10.888Z,3.93
2022-09-10T06:08:41.156Z,3.87
2022-09-10T06:11:09.714Z,4.47
2022-09-10T06:13:40.385Z,4.20
2022-09-10T06:16:10.022Z,4.13
2022-09-10T06:18:38.683Z,4.50
2022-09-10T06:21:08.770Z,3.93
2022-09-10T06:23:37.263Z,4.27
2022-09-10T06:26:06.598Z,4.43
2022-09-10T06:28:34.894Z,4.33
2022-09-10T06:31:04.286Z,4.17
2022-09-10T06:33:34.701Z,4.53
2022-09-10T06:36:03.408Z,4.17
2022-09-10T06:38:32.321Z,4.63
2022-09-10T06:41:01.486Z,4.93
2022-09-10T06:43:30.299Z,4.00
2022-09-10T06:45:58.701Z,4.67
2022-09-10T06:48:47.861Z,5.43
2022-09-10T06:51:18.217Z,4.83
2022-09-10T06:53:47.632Z,5.10
2022-09-10T06:56:17.547Z,5.80
2022-09-10T06:58:45.837Z,4.80
2022-09-10T07:01:15.674Z,3.93
2022-09-10T07:03:43.942Z,6.03
2022-09-10T07:06:13.958Z,4.60
2022-09-10T07:08:44.280Z,4.80
2022-09-10T07:11:13.852Z,5.50
2022-09-10T07:13:43.023Z,4.43
2022-09-10T07:16:11.745Z,5.33
2022-09-10T07:18:41.211Z,5.77
2022-09-10T07:21:10.098Z,5.13
2022-09-10T07:23:39.292Z,5.00
2022-09-10T07:26:11.358Z,5.10
2022-09-10T07:28:40.296Z,5.23
2022-09-10T07:31:16.656Z,5.67
2022-09-10T07:33:45.590Z,4.60
2022-09-10T07:36:13.867Z,5.77
2022-09-10T07:38:42.887Z,5.60
2022-09-10T07:41:13.185Z,6.80
2022-09-10T07:43:41.656Z,5.10
2022-09-10T07:46:11.961Z,5.73
2022-09-10T07:48:40.301Z,6.50
2022-09-10T07:51:11.050Z,5.87
2022-09-10T07:53:44.424Z,6.37
2022-09-10T07:56:19.538Z,6.07
2022-09-10T07:58:47.782Z,6.63
2022-09-10T08:01:16.165Z,6.60
2022-09-10T08:03:44.873Z,5.80
2022-09-10T08:06:13.087Z,7.90
2022-09-10T08:08:41.863Z,7.27
2022-09-10T08:11:12.691Z,6.63
2022-09-10T08:13:42.818Z,7.53
2022-09-10T08:16:12.173Z,9.10
2022-09-10T08:18:40.635Z,7.70
2022-09-10T08:21:09.662Z,8.77
2022-09-10T08:23:39.584Z,8.90
2022-09-10T08:26:08.463Z,7.30
2022-09-10T08:28:38.529Z,10.07
2022-09-10T08:31:09.303Z,11.27
2022-09-10T08:33:39.587Z,9.83
2022-09-10T08:36:14.956Z,9.90
2022-09-10T08:38:48.176Z,13.70
2022-09-10T08:41:23.943Z,12.80
2022-09-10T08:43:54.308Z,11.57
2022-09-10T08:46:25.350Z,11.03
2022-09-10T08:48:58.165Z,9.20
2022-09-10T08:51:27.906Z,10.53
2022-09-10T08:53:59.731Z,8.40
2022-09-10T08:56:28.874Z,8.50
2022-09-10T08:58:59.953Z,10.10
2022-09-10T09:01:32.143Z,10.53
2022-09-10T09:04:04.903Z,8.10
2022-09-10T09:06:39.514Z,8.40
2022-09-10T09:09:09.552Z,9.10
2022-09-10T09:11:44.042Z,8.30
2022-09-10T09:14:16.630Z,8.47
2022-09-10T09:16:54.497Z,9.37
2022-09-10T09:19:25.706Z,9.80
2022-09-10T09:21:54.681Z,8.33
2022-09-10T09:24:24.679Z,8.77
2022-09-10T09:26:55.656Z,8.53
2022-09-10T09:29:25.827Z,8.53
2022-09-10T09:31:58.623Z,9.27
2022-09-10T09:34:29.910Z,9.87
2022-09-10T09:36:59.969Z,9.10
2022-09-10T09:39:30.908Z,9.03
2022-09-10T09:42:01.856Z,8.43
2022-09-10T09:44:31.522Z,11.27
2022-09-10T09:47:01.112Z,8.90
2022-09-10T09:49:30.753Z,8.13
2022-09-10T09:51:59.229Z,8.70
2022-09-10T09:55:13.206Z,8.90
2022-09-10T09:57:19.508Z,10.20
2022-09-10T09:59:48.798Z,7.03
2022-09-10T10:02:19.545Z,9.00
2022-09-10T10:05:02.729Z,7.70
2022-09-10T10:07:33.795Z,9.47
2022-09-10T10:10:02.602Z,8.20
2022-09-10T10:12:33.361Z,8.70
2022-09-10T10:15:03.814Z,10.20
2022-09-10T10:17:35.965Z,8.63
2022-09-10T10:20:07.801Z,12.30
2022-09-10T10:22:36.591Z,8.60
2022-09-10T10:25:06.384Z,11.17
2022-09-10T10:27:36.420Z,9.33
2022-09-10T10:30:10.406Z,10.53
2022-09-10T10:32:44.744Z,9.47
2022-09-10T10:35:19.479Z,10.57
2022-09-10T10:37:56.693Z,9.83
2022-09-10T10:40:31.559Z,10.87
2022-09-10T10:43:03.250Z,11.87
2022-09-10T10:45:38.287Z,7.80
2022-09-10T10:48:12.553Z,10.20
2022-09-10T10:50:49.788Z,10.20
2022-09-10T10:53:26.802Z,11.67
2022-09-10T10:55:59.147Z,10.10
2022-09-10T10:58:33.801Z,10.43
2022-09-10T11:01:05.530Z,9.07
2022-09-10T11:03:37.714Z,8.23
2022-09-10T11:06:09.413Z,9.47
2022-09-10T11:08:39.412Z,11.37
2022-09-10T11:11:11.336Z,8.57
2022-09-10T11:13:41.356Z,11.67
2022-09-10T11:16:12.953Z,11.63
2022-09-10T11:18:44.865Z,12.07
2022-09-10T11:21:19.347Z,9.90
2022-09-10T11:23:48.902Z,11.67
2022-09-10T11:26:20.566Z,13.30
2022-09-10T11:28:54.317Z,12.70
2022-09-10T11:31:26.778Z,12.33
2022-09-10T11:33:59.941Z,12.60
2022-09-10T11:36:30.023Z,14.43
2022-09-10T11:39:04.097Z,14.53
2022-09-10T11:41:32.897Z,14.30
2022-09-10T11:44:07.784Z,14.70
2022-09-10T11:46:37.615Z,14.23
2022-09-10T11:49:09.643Z,14.40
2022-09-10T11:51:38.736Z,13.07
2022-09-10T11:54:08.102Z,12.47
2022-09-10T11:56:41.873Z,17.73
2022-09-10T11:59:16.208Z,13.97
2022-09-10T12:01:52.933Z,14.00
2022-09-10T12:04:31.285Z,15.37
2022-09-10T12:07:04.292Z,11.07
2022-09-10T12:09:35.889Z,13.30
2022-09-10T12:12:09.085Z,13.87
2022-09-10T12:14:40.861Z,13.97
2022-09-10T12:17:12.071Z,12.77
2022-09-10T12:19:45.933Z,13.33
2022-09-10T12:22:19.411Z,15.63
2022-09-10T12:24:52.624Z,16.70
2022-09-10T12:27:21.591Z,11.13
2022-09-10T12:29:50.144Z,10.30
2022-09-10T12:32:39.356Z,12.90
2022-09-10T12:35:26.104Z,12.60
2022-09-10T12:38:20.369Z,12.70
2022-09-10T12:40:49.665Z,12.87
2022-09-10T12:43:36.764Z,14.37
2022-09-10T12:46:17.524Z,11.60
2022-09-10T12:48:46.648Z,11.40
2022-09-10T12:51:23.676Z,14.73
2022-09-10T12:54:02.946Z,13.63
2022-09-10T12:56:39.293Z,14.23
2022-09-10T12:59:15.209Z,15.80
2022-09-10T13:01:46.390Z,13.93
2022-09-10T13:04:24.291Z,16.57
2022-09-10T13:06:53.670Z,16.90
2022-09-10T13:09:25.465Z,17.43
2022-09-10T13:11:55.619Z,14.40
2022-09-10T13:14:25.854Z,16.80
2022-09-10T13:16:55.219Z,12.43
2022-09-10T13:19:42.829Z,14.40
2022-09-10T13:22:27.225Z,15.80
2022-09-10T13:25:02.253Z,13.73
2022-09-10T13:27:38.001Z,13.10
2022-09-10T13:30:14.465Z,12.87
2022-09-10T13:32:45.721Z,13.03
2022-09-10T13:35:22.969Z,13.90
2022-09-10T13:38:00.386Z,12.50
2022-09-10T13:40:49.660Z,13.07
2022-09-10T13:43:27.546Z,12.47
2022-09-10T13:45:58.737Z,14.37
2022-09-10T13:48:28.150Z,12.27
2022-09-10T13:51:01.055Z,13.30
2022-09-10T13:53:30.286Z,13.37
2022-09-10T13:55:59.796Z,11.20
2022-09-10T13:58:32.216Z,11.10
2022-09-10T14:01:01.253Z,10.87
2022-09-10T14:03:31.829Z,12.37
2022-09-10T14:06:03.993Z,11.17
2022-09-10T14:08:35.661Z,12.40
2022-09-10T14:11:08.141Z,10.93
2022-09-10T14:13:40.959Z,11.10
2022-09-10T14:16:10.973Z,11.83
2022-09-10T14:18:43.278Z,11.20
2022-09-10T14:21:13.740Z,12.80
2022-09-10T14:23:44.459Z,10.30
2022-09-10T14:26:15.151Z,12.50
2022-09-10T14:28:51.546Z,11.77
2022-09-10T14:31:24.555Z,13.33
2022-09-10T14:33:53.046Z,10.83
2022-09-10T14:36:23.016Z,12.13
2022-09-10T14:38:55.661Z,11.40
2022-09-10T14:41:24.998Z,11.10
2022-09-10T14:44:08.112Z,10.57
2022-09-10T14:46:55.016Z,9.30
2022-09-10T14:49:26.635Z,9.27
2022-09-10T14:51:55.052Z,9.43
2022-09-10T14:54:24.484Z,7.80
2022-09-10T14:56:52.840Z,7.80
2022-09-10T14:59:24.718Z,8.30
2022-09-10T15:01:54.992Z,10.23
2022-09-10T15:04:26.437Z,8.60
2022-09-10T15:06:55.407Z,8.87
2022-09-10T15:09:23.910Z,7.60
2022-09-10T15:11:55.418Z,7.97
2022-09-10T15:14:24.863Z,7.80
2022-09-10T15:16:54.473Z,8.43
2022-09-10T15:19:22.681Z,7.53
2022-09-10T15:21:51.531Z,8.87
2022-09-10T15:24:20.622Z,8.37
2022-09-10T15:26:49.413Z,8.37
2022-09-10T15:29:18.091Z,7.50
2022-09-10T15:31:47.039Z,7.83
2022-09-10T15:34:16.662Z,8.07
2022-09-10T15:36:44.969Z,6.80
2022-09-10T15:39:13.992Z,7.30
2022-09-10T15:41:43.546Z,7.03
2022-09-10T15:44:12.501Z,6.43
2022-09-10T15:46:42.653Z,6.33
2022-09-10T15:49:11.674Z,8.10
2022-09-10T15:51:41.374Z,6.80
2022-09-10T15:54:11.018Z,7.93
2022-09-10T15:56:39.311Z,7.03
2022-09-10T15:59:08.582Z,5.80
2022-09-10T16:01:38.278Z,5.70
2022-09-10T16:04:06.809Z,5.20
2022-09-10T16:06:36.114Z,5.10
2022-09-10T16:09:09.046Z,3.83
2022-09-10T16:11:38.338Z,3.37
2022-09-10T16:14:07.989Z,4.13
2022-09-10T16:16:37.108Z,4.43
2022-09-10T16:19:05.871Z,3.97
2022-09-10T16:21:36.084Z,4.40
2022-09-10T16:24:05.786Z,4.00
2022-09-10T16:26:37.598Z,4.70
2022-09-10T16:29:07.242Z,4.17
2022-09-10T16:31:36.432Z,3.33
2022-09-10T16:34:05.765Z,5.77
2022-09-10T16:36:34.648Z,4.40
2022-09-10T16:39:03.421Z,5.50
2022-09-10T16:41:35.016Z,4.90
2022-09-10T16:44:05.038Z,4.00
2022-09-10T16:46:33.415Z,4.40
2022-09-10T16:49:01.722Z,4.90
2022-09-10T16:51:30.325Z,3.97
2022-09-10T16:54:02.710Z,5.27
2022-09-10T16:56:33.520Z,4.50
2022-09-10T16:59:01.784Z,4.33
2022-09-10T17:01:32.111Z,4.43
2022-09-10T17:04:02.226Z,5.07
2022-09-10T17:06:31.447Z,4.33
2022-09-10T17:09:00.581Z,3.80
2022-09-10T17:11:31.567Z,4.00
2022-09-10T17:14:01.403Z,4.50
2022-09-10T17:16:32.778Z,5.53
2022-09-10T17:19:02.145Z,4.77
2022-09-10T17:21:31.517Z,5.47
2022-09-10T17:24:02.166Z,3.80
2022-09-10T17:26:30.849Z,5.50
2022-09-10T17:28:59.808Z,5.00
2022-09-10T17:31:29.388Z,4.30
2022-09-10T17:33:59.354Z,4.17
2022-09-10T17:36:28.089Z,5.80
2022-09-10T17:38:59.192Z,4.17
2022-09-10T17:41:28.224Z,4.50
2022-09-10T17:43:56.617Z,5.33
2022-09-10T17:46:24.915Z,4.80
2022-09-10T17:48:53.541Z,4.17
2022-09-10T17:51:24.337Z,5.10
2022-09-10T17:53:55.112Z,4.20
2022-09-10T17:56:24.415Z,4.60
2022-09-10T17:58:57.120Z,5.57
2022-09-10T18:01:29.001Z,5.00
2022-09-10T18:03:57.542Z,5.93
2022-09-10T18:06:28.947Z,5.13
2022-09-10T18:09:00.515Z,5.10
2022-09-10T18:11:29.808Z,5.00
2022-09-10T18:13:59.093Z,5.00
2022-09-10T18:16:29.683Z,5.17
2022-09-10T18:18:59.326Z,5.87
2022-09-10T18:21:30.913Z,4.47
2022-09-10T18:24:01.576Z,4.43
2022-09-10T18:26:30.876Z,4.70
2022-09-10T18:29:00.089Z,5.70
2022-09-10T18:31:29.342Z,5.63
2022-09-10T18:33:58.123Z,5.40
2022-09-10T18:36:27.055Z,6.30
2022-09-10T18:38:57.605Z,5.07
2022-09-10T18:41:28.857Z,5.37
2022-09-10T18:43:59.162Z,5.60
2022-09-10T18:46:28.981Z,5.57
2022-09-10T18:48:58.913Z,4.80
2022-09-10T18:51:28.353Z,4.90
2022-09-10T18:53:58.598Z,3.50
2022-09-10T18:56:29.963Z,5.37
2022-09-10T18:59:00.462Z,4.30
2022-09-10T19:01:29.933Z,4.80
2022-09-10T19:03:59.382Z,4.57
2022-09-10T19:06:28.799Z,4.17
2022-09-10T19:08:59.077Z,4.50
2022-09-10T19:11:29.626Z,4.30
2022-09-10T19:13:58.543Z,4.40
2022-09-10T19:16:28.126Z,3.70
2022-09-10T19:18:57.389Z,4.07
2022-09-10T19:21:32.214Z,6.13
2022-09-10T19:24:01.841Z,4.70
2022-09-10T19:26:30.927Z,4.33
2022-09-10T19:29:01.832Z,4.80
2022-09-10T19:31:30.855Z,4.47
2022-09-10T19:33:59.825Z,4.63
2022-09-10T19:36:30.456Z,4.63
2022-09-10T19:38:59.813Z,5.03
2022-09-10T19:41:29.741Z,5.40
2022-09-10T19:43:58.713Z,5.57
2022-09-10T19:46:28.511Z,7.60
2022-09-10T19:48:59.416Z,6.13
2022-09-10T19:51:28.243Z,4.77
2022-09-10T19:53:56.527Z,7.07
2022-09-10T19:56:25.682Z,5.53
2022-09-10T19:58:56.629Z,7.70
2022-09-10T20:01:25.599Z,7.33
2022-09-10T20:03:54.493Z,7.77
2022-09-10T20:06:25.621Z,7.57
2022-09-10T20:08:54.221Z,9.07
2022-09-10T20:11:23.435Z,9.30
2022-09-10T20:13:55.314Z,8.83
2022-09-10T20:16:26.041Z,6.63
2022-09-10T20:18:54.650Z,9.67
2022-09-10T20:21:23.763Z,7.27
2022-09-10T20:23:52.880Z,10.03
2022-09-10T20:26:22.478Z,9.50
2022-09-10T20:28:52.037Z,6.77
2022-09-10T20:31:20.419Z,5.20
2022-09-10T20:33:50.255Z,5.93
2022-09-10T20:36:19.051Z,5.90
2022-09-10T20:38:48.344Z,8.50
2022-09-10T20:41:16.973Z,8.00
2022-09-10T20:43:45.169Z,8.27
2022-09-10T20:46:16.388Z,9.83
2022-09-10T20:48:48.996Z,9.80
2022-09-10T20:51:19.455Z,9.07
2022-09-10T20:53:48.254Z,9.63
2022-09-10T20:56:17.546Z,9.20
2022-09-10T20:58:46.906Z,11.27
2022-09-10T21:01:16.573Z,10.70
2022-09-10T21:03:45.236Z,10.93
2022-09-10T21:06:14.282Z,11.57
2022-09-10T21:08:44.191Z,13.10
2022-09-10T21:11:13.230Z,11.93
2022-09-10T21:13:45.027Z,12.27
2022-09-10T21:16:14.642Z,11.30
2022-09-10T21:18:43.193Z,6.20
2022-09-10T21:21:12.531Z,4.50
2022-09-10T21:23:45.728Z,12.10
2022-09-10T21:26:14.236Z,5.40
2022-09-10T21:28:44.845Z,12.03
2022-09-10T21:31:13.742Z,6.63
2022-09-10T21:33:42.753Z,12.23
2022-09-10T21:36:12.749Z,10.83
2022-09-10T21:38:41.298Z,5.40
2022-09-10T21:41:13.642Z,11.27
2022-09-10T21:43:44.725Z,5.33
2022-09-10T21:46:13.505Z,9.77
2022-09-10T21:48:42.566Z,5.77
2022-09-10T21:51:13.471Z,15.03
2022-09-10T21:53:42.090Z,15.43
2022-09-10T21:56:13.141Z,6.57
2022-09-10T21:58:41.963Z,10.97
2022-09-10T22:01:11.230Z,7.57
2022-09-10T22:03:39.879Z,5.60
2022-09-10T22:06:09.103Z,9.17
2022-09-10T22:08:37.730Z,6.97
2022-09-10T22:11:07.348Z,15.30
2022-09-10T22:13:37.875Z,7.80
2022-09-10T22:16:06.741Z,14.27
2022-09-10T22:18:35.338Z,9.17
2022-09-10T22:21:03.940Z,13.70
2022-09-10T22:23:32.716Z,23.80
2022-09-10T22:26:04.599Z,19.93
2022-09-10T22:28:34.909Z,18.60
2022-09-10T22:31:10.099Z,18.47
2022-09-10T22:33:41.041Z,22.33
2022-09-10T22:36:10.285Z,10.30
2022-09-10T22:38:38.531Z,17.37
2022-09-10T22:41:07.915Z,18.63
2022-09-10T22:43:36.559Z,10.10
2022-09-10T22:46:06.839Z,21.23
2022-09-10T22:48:37.866Z,17.93
2022-09-10T22:51:06.609Z,21.60
2022-09-10T22:53:35.070Z,20.30
2022-09-10T22:56:03.827Z,21.00
2022-09-10T22:58:32.922Z,13.27
2022-09-10T23:01:04.387Z,14.10
2022-09-10T23:03:32.663Z,20.20
2022-09-10T23:06:06.177Z,12.50
2022-09-10T23:08:35.744Z,22.33
2022-09-10T23:11:15.223Z,20.10
2022-09-10T23:13:43.807Z,19.97
2022-09-10T23:16:13.060Z,20.50
2022-09-10T23:18:41.393Z,20.27
2022-09-10T23:21:11.867Z,20.77
2022-09-10T23:23:40.096Z,18.10
2022-09-10T23:26:09.325Z,18.93
2022-09-10T23:28:37.870Z,20.50
2022-09-10T23:31:10.508Z,22.63
2022-09-10T23:33:39.185Z,21.90
2022-09-10T23:36:07.581Z,22.00
2022-09-10T23:38:37.656Z,22.40
2022-09-10T23:41:05.869Z,20.70
2022-09-10T23:43:34.225Z,19.83
2022-09-10T23:46:02.482Z,22.33
2022-09-10T23:48:30.846Z,20.27
2022-09-10T23:50:59.235Z,20.20
2022-09-10T23:53:27.716Z,17.47
2022-09-10T23:55:57.273Z,23.20
2022-09-10T23:58:26.028Z,25.10
